createdAt,value
2023-08-29T00:01:31.119Z,2.28
2023-08-29T00:03:57.616Z,2.55
2023-08-29T00:06:24.039Z,1.70
2023-08-29T00:08:50.478Z,2.30
2023-08-29T00:11:16.904Z,1.67
2023-08-29T00:13:43.453Z,1.80
2023-08-29T00:16:09.796Z,2.25
2023-08-29T00:18:36.316Z,2.05
2023-08-29T00:21:02.766Z,1.95
2023-08-29T00:23:29.133Z,1.90
2023-08-29T00:25:55.417Z,1.90
2023-08-29T00:28:21.791Z,1.73
2023-08-29T00:30:48.096Z,2.00
2023-08-29T00:33:14.461Z,1.85
2023-08-29T00:35:41.348Z,2.30
2023-08-29T00:38:08.012Z,2.33
2023-08-29T00:40:34.608Z,2.53
2023-08-29T00:43:02.347Z,2.22
2023-08-29T00:45:31.570Z,2.00
2023-08-29T00:47:58.368Z,2.00
2023-08-29T00:50:25.755Z,1.83
2023-08-29T00:52:54.855Z,1.95
2023-08-29T00:55:21.925Z,2.10
2023-08-29T00:57:48.771Z,2.10
2023-08-29T01:00:15.750Z,2.40
2023-08-29T01:02:42.162Z,2.00
2023-08-29T01:05:08.678Z,2.53
2023-08-29T01:07:35.884Z,1.92
2023-08-29T01:10:02.445Z,2.10
2023-08-29T01:12:42.951Z,2.00
2023-08-29T01:15:18.239Z,2.05
2023-08-29T01:17:52.879Z,1.80
2023-08-29T01:20:20.361Z,2.30
2023-08-29T01:23:14.750Z,2.38
2023-08-29T01:25:53.996Z,2.42
2023-08-29T01:28:21.215Z,2.72
2023-08-29T01:30:48.805Z,1.90
2023-08-29T01:33:15.335Z,2.38
2023-08-29T01:35:48.275Z,2.28
2023-08-29T01:38:15.348Z,3.17
2023-08-29T01:40:41.714Z,1.60
2023-08-29T01:43:07.994Z,1.60
2023-08-29T01:45:34.722Z,1.88
2023-08-29T01:48:01.268Z,2.83
2023-08-29T01:50:30.639Z,2.10
2023-08-29T01:52:57.382Z,2.25
2023-08-29T01:55:25.319Z,1.95
2023-08-29T01:57:52.842Z,1.88
2023-08-29T02:00:20.167Z,2.00
2023-08-29T02:02:46.573Z,2.25
2023-08-29T02:05:12.996Z,2.53
2023-08-29T02:07:39.350Z,2.08
2023-08-29T02:10:06.664Z,2.38
2023-08-29T02:12:33.035Z,1.83
2023-08-29T02:14:59.531Z,1.95
2023-08-29T02:17:25.963Z,2.17
2023-08-29T02:19:52.514Z,2.15
2023-08-29T02:22:18.831Z,2.15
2023-08-29T02:24:45.212Z,2.28
2023-08-29T02:27:11.691Z,1.88
2023-08-29T02:29:38.336Z,2.05
2023-08-29T02:32:04.972Z,2.05
2023-08-29T02:34:31.387Z,1.95
2023-08-29T02:36:57.703Z,1.85
2023-08-29T02:39:24.066Z,1.90
2023-08-29T02:41:50.371Z,2.30
2023-08-29T02:44:16.707Z,2.22
2023-08-29T02:46:43.097Z,2.75
2023-08-29T02:49:09.513Z,2.30
2023-08-29T02:51:35.806Z,1.90
2023-08-29T02:54:02.506Z,1.70
2023-08-29T02:56:29.010Z,1.33
2023-08-29T02:58:55.292Z,1.85
2023-08-29T03:01:21.566Z,1.45
2023-08-29T03:03:48.217Z,1.20
2023-08-29T03:06:14.758Z,1.20
2023-08-29T03:08:41.071Z,2.13
2023-08-29T03:11:07.433Z,1.92
2023-08-29T03:13:33.829Z,1.75
2023-08-29T03:16:00.173Z,1.63
2023-08-29T03:18:29.614Z,1.80
2023-08-29T03:21:00.668Z,2.10
2023-08-29T03:23:26.959Z,1.27
2023-08-29T03:26:03.032Z,1.67
2023-08-29T03:28:29.397Z,2.22
2023-08-29T03:30:55.810Z,1.70
2023-08-29T03:33:22.316Z,1.50
2023-08-29T03:36:00.781Z,1.80
2023-08-29T03:38:27.318Z,1.65
2023-08-29T03:40:59.994Z,1.63
2023-08-29T03:43:27.345Z,2.13
2023-08-29T03:46:11.800Z,1.50
2023-08-29T03:48:38.687Z,1.65
2023-08-29T03:51:05.323Z,1.30
2023-08-29T03:53:31.682Z,1.65
2023-08-29T03:56:00.921Z,1.38
2023-08-29T03:58:27.322Z,1.58
2023-08-29T04:00:54.103Z,2.13
2023-08-29T04:03:20.639Z,1.80
2023-08-29T04:05:47.599Z,1.38
2023-08-29T04:08:14.041Z,1.80
2023-08-29T04:10:41.672Z,1.48
2023-08-29T04:13:09.022Z,1.17
2023-08-29T04:15:36.049Z,1.48
2023-08-29T04:18:02.719Z,1.75
2023-08-29T04:20:29.589Z,1.50
2023-08-29T04:22:56.701Z,1.45
2023-08-29T04:25:23.533Z,1.42
2023-08-29T04:27:49.811Z,1.60
2023-08-29T04:30:16.167Z,1.55
2023-08-29T04:32:42.518Z,1.27
2023-08-29T04:35:09.057Z,1.30
2023-08-29T04:37:36.018Z,1.42
2023-08-29T04:40:03.020Z,1.40
2023-08-29T04:42:29.381Z,1.52
2023-08-29T04:44:56.079Z,1.20
2023-08-29T04:47:22.457Z,1.55
2023-08-29T04:49:49.093Z,1.38
2023-08-29T04:52:15.386Z,1.30
2023-08-29T04:54:42.258Z,1.83
2023-08-29T04:57:08.616Z,1.85
2023-08-29T04:59:34.928Z,1.40
2023-08-29T05:02:01.267Z,1.17
2023-08-29T05:04:27.646Z,1.20
2023-08-29T05:06:54.016Z,1.50
2023-08-29T05:09:20.731Z,1.42
2023-08-29T05:11:47.102Z,1.50
2023-08-29T05:14:13.667Z,1.20
2023-08-29T05:16:39.957Z,1.77
2023-08-29T05:19:06.265Z,2.28
2023-08-29T05:21:32.973Z,1.27
2023-08-29T05:23:59.349Z,1.52
2023-08-29T05:26:25.811Z,1.35
2023-08-29T05:28:52.151Z,1.40
2023-08-29T05:31:18.659Z,2.00
2023-08-29T05:33:45.084Z,1.70
2023-08-29T05:36:11.508Z,1.42
2023-08-29T05:38:37.934Z,1.67
2023-08-29T05:41:04.434Z,1.85
2023-08-29T05:43:30.780Z,1.30
2023-08-29T05:45:57.529Z,1.77
2023-08-29T05:48:24.329Z,1.80
2023-08-29T05:50:52.060Z,1.50
2023-08-29T05:53:19.073Z,1.33
2023-08-29T05:55:46.200Z,1.65
2023-08-29T05:58:12.847Z,1.98
2023-08-29T06:00:39.179Z,1.38
2023-08-29T06:03:07.481Z,1.55
2023-08-29T06:05:34.828Z,1.67
2023-08-29T06:08:12.902Z,1.27
2023-08-29T06:10:44.394Z,1.38
2023-08-29T06:13:11.066Z,2.15
2023-08-29T06:15:38.769Z,1.63
2023-08-29T06:18:05.726Z,1.95
2023-08-29T06:20:32.320Z,2.05
2023-08-29T06:22:58.680Z,2.10
2023-08-29T06:25:25.190Z,1.80
2023-08-29T06:27:51.643Z,1.60
2023-08-29T06:30:18.112Z,1.75
2023-08-29T06:32:44.419Z,1.98
2023-08-29T06:35:11.469Z,1.70
2023-08-29T06:37:38.369Z,1.60
2023-08-29T06:40:05.208Z,1.27
2023-08-29T06:42:31.941Z,1.33
2023-08-29T06:44:59.023Z,1.80
2023-08-29T06:47:27.619Z,1.95
2023-08-29T06:49:54.037Z,1.50
2023-08-29T06:52:20.361Z,1.52
2023-08-29T06:54:46.764Z,1.35
2023-08-29T06:57:13.475Z,1.77
2023-08-29T06:59:42.372Z,1.30
2023-08-29T07:02:08.768Z,1.90
2023-08-29T07:04:35.165Z,2.92
2023-08-29T07:07:01.646Z,1.88
2023-08-29T07:09:28.038Z,1.98
2023-08-29T07:11:55.264Z,1.65
2023-08-29T07:14:21.900Z,1.58
2023-08-29T07:17:03.978Z,2.00
2023-08-29T07:19:34.836Z,2.10
2023-08-29T07:22:03.142Z,1.88
2023-08-29T07:24:30.319Z,1.50
2023-08-29T07:26:56.765Z,1.67
2023-08-29T07:29:23.403Z,1.30
2023-08-29T07:31:49.916Z,1.83
2023-08-29T07:34:16.328Z,1.63
2023-08-29T07:36:43.172Z,1.67
2023-08-29T07:39:09.896Z,1.77
2023-08-29T07:41:36.315Z,1.83
2023-08-29T07:44:02.781Z,2.70
2023-08-29T07:46:29.332Z,1.33
2023-08-29T07:48:55.843Z,1.20
2023-08-29T07:51:22.156Z,1.40
2023-08-29T07:53:48.686Z,1.33
2023-08-29T07:56:15.048Z,1.25
2023-08-29T07:58:41.454Z,1.10
2023-08-29T08:01:07.891Z,2.05
2023-08-29T08:03:34.354Z,1.60
2023-08-29T08:06:01.194Z,1.23
2023-08-29T08:08:27.499Z,1.10
2023-08-29T08:10:53.822Z,1.10
2023-08-29T08:13:20.222Z,1.20
2023-08-29T08:15:46.574Z,1.10
2023-08-29T08:18:12.892Z,1.15
2023-08-29T08:20:39.256Z,1.40
2023-08-29T08:23:05.654Z,1.35
2023-08-29T08:25:32.057Z,1.38
2023-08-29T08:28:01.630Z,0.90
2023-08-29T08:30:27.939Z,1.15
2023-08-29T08:32:54.306Z,0.90
2023-08-29T08:35:20.648Z,1.10
2023-08-29T08:37:47.152Z,1.73
2023-08-29T08:40:15.798Z,1.20
2023-08-29T08:42:42.104Z,1.23
2023-08-29T08:45:09.123Z,1.20
2023-08-29T08:47:35.678Z,1.00
2023-08-29T08:50:02.780Z,0.90
2023-08-29T08:52:33.676Z,1.00
2023-08-29T08:55:00.291Z,1.20
2023-08-29T08:57:27.036Z,0.85
2023-08-29T08:59:54.014Z,1.23
2023-08-29T09:02:20.765Z,1.10
2023-08-29T09:04:47.255Z,1.00
2023-08-29T09:07:13.566Z,0.80
2023-08-29T09:09:40.063Z,0.90
2023-08-29T09:12:06.606Z,0.63
2023-08-29T09:14:33.212Z,1.00
2023-08-29T09:17:01.235Z,1.05
2023-08-29T09:19:30.915Z,0.60
2023-08-29T09:21:58.510Z,0.80
2023-08-29T09:27:18.556Z,0.65
2023-08-29T09:29:44.880Z,0.82
2023-08-29T09:32:15.481Z,0.82
2023-08-29T09:34:44.441Z,0.57
2023-08-29T09:37:13.983Z,0.60
2023-08-29T09:39:40.388Z,0.50
2023-08-29T09:42:08.909Z,0.90
2023-08-29T09:44:40.971Z,0.43
2023-08-29T09:47:10.389Z,0.55
2023-08-29T09:49:55.194Z,0.60
2023-08-29T09:52:25.220Z,0.60
2023-08-29T09:54:53.528Z,0.45
2023-08-29T09:57:22.395Z,0.70
2023-08-29T09:59:52.180Z,0.75
2023-08-29T10:02:19.446Z,0.68
2023-08-29T10:04:47.686Z,0.63
2023-08-29T10:07:16.807Z,0.68
2023-08-29T10:09:44.418Z,0.90
2023-08-29T10:12:13.017Z,0.80
2023-08-29T10:14:39.657Z,0.50
2023-08-29T10:17:11.327Z,0.95
2023-08-29T10:19:49.956Z,0.93
2023-08-29T10:22:17.840Z,0.70
2023-08-29T10:24:45.398Z,0.75
2023-08-29T10:27:11.888Z,0.95
2023-08-29T10:29:38.677Z,0.60
2023-08-29T10:32:06.640Z,1.20
2023-08-29T10:34:32.998Z,0.60
2023-08-29T10:36:59.496Z,0.90
2023-08-29T10:39:26.908Z,1.05
2023-08-29T10:41:55.199Z,0.68
2023-08-29T10:44:37.665Z,0.73
2023-08-29T10:47:23.711Z,0.50
2023-08-29T10:50:00.898Z,0.50
2023-08-29T10:52:38.537Z,0.50
2023-08-29T10:55:06.157Z,0.60
2023-08-29T10:57:32.628Z,1.40
2023-08-29T10:59:58.932Z,0.45
2023-08-29T11:02:29.958Z,0.65
2023-08-29T11:05:05.600Z,0.68
2023-08-29T11:07:33.283Z,0.50
2023-08-29T11:10:15.784Z,0.50
2023-08-29T11:13:04.137Z,0.60
2023-08-29T11:15:49.018Z,0.60
2023-08-29T11:18:29.328Z,1.13
2023-08-29T11:20:55.813Z,0.70
2023-08-29T11:23:23.089Z,0.95
2023-08-29T11:25:50.196Z,0.85
2023-08-29T11:28:16.842Z,0.50
2023-08-29T11:30:45.115Z,0.80
2023-08-29T11:33:12.609Z,0.60
2023-08-29T11:35:39.347Z,0.50
2023-08-29T11:38:05.863Z,0.30
2023-08-29T11:40:48.125Z,0.50
2023-08-29T11:43:59.672Z,0.40
2023-08-29T11:46:06.899Z,0.40
2023-08-29T11:48:34.736Z,0.43
2023-08-29T11:51:08.729Z,0.50
2023-08-29T11:53:37.425Z,0.80
2023-08-29T11:56:05.710Z,0.70
2023-08-29T11:58:35.331Z,0.60
2023-08-29T12:01:02.547Z,0.32
2023-08-29T12:03:29.056Z,0.75
2023-08-29T12:05:59.105Z,0.30
2023-08-29T12:08:45.655Z,0.52
2023-08-29T12:11:14.130Z,1.00
2023-08-29T12:13:41.385Z,1.05
2023-08-29T12:16:17.889Z,1.10
2023-08-29T12:18:44.446Z,0.82
2023-08-29T12:21:20.861Z,0.40
2023-08-29T12:23:47.269Z,0.43
2023-08-29T12:26:14.373Z,0.50
2023-08-29T12:28:40.659Z,0.50
2023-08-29T12:31:08.450Z,0.30
2023-08-29T12:33:36.156Z,0.40
2023-08-29T12:36:03.244Z,0.50
2023-08-29T12:38:30.546Z,0.60
2023-08-29T12:40:57.008Z,0.45
2023-08-29T12:43:24.150Z,0.30
2023-08-29T12:45:59.429Z,0.50
2023-08-29T12:48:27.048Z,0.60
2023-08-29T12:50:53.590Z,0.80
2023-08-29T12:53:19.954Z,0.47
2023-08-29T12:55:46.290Z,0.40
2023-08-29T12:58:12.713Z,0.50
2023-08-29T13:00:39.045Z,0.55
2023-08-29T13:03:05.813Z,0.75
2023-08-29T13:05:32.461Z,0.50
2023-08-29T13:08:00.040Z,0.60
2023-08-29T13:10:26.356Z,0.52
2023-08-29T13:12:52.654Z,0.60
2023-08-29T13:15:19.246Z,0.40
2023-08-29T13:17:46.241Z,0.55
2023-08-29T13:20:12.801Z,0.30
2023-08-29T13:22:39.141Z,0.50
2023-08-29T13:25:08.884Z,0.50
2023-08-29T13:27:35.316Z,0.40
2023-08-29T13:30:01.683Z,0.30
2023-08-29T13:32:28.108Z,0.60
2023-08-29T13:34:54.428Z,0.50
2023-08-29T13:37:20.844Z,0.52
2023-08-29T13:39:54.730Z,0.50
2023-08-29T13:42:21.130Z,0.40
2023-08-29T13:44:47.520Z,1.13
2023-08-29T13:47:13.878Z,0.77
2023-08-29T13:49:40.601Z,0.50
2023-08-29T13:52:06.986Z,0.73
2023-08-29T13:54:33.410Z,0.50
2023-08-29T13:57:00.189Z,0.40
2023-08-29T13:59:26.643Z,0.95
2023-08-29T14:01:53.026Z,0.40
2023-08-29T14:04:19.367Z,0.40
2023-08-29T14:06:45.795Z,0.50
2023-08-29T14:09:12.262Z,0.60
2023-08-29T14:11:38.577Z,0.75
2023-08-29T14:14:05.010Z,0.60
2023-08-29T14:16:31.434Z,0.60
2023-08-29T14:18:57.745Z,0.50
2023-08-29T14:21:24.048Z,0.55
2023-08-29T14:23:50.862Z,0.90
2023-08-29T14:26:17.197Z,0.60
2023-08-29T14:28:43.709Z,0.50
2023-08-29T14:31:10.820Z,0.52
2023-08-29T14:33:37.153Z,0.47
2023-08-29T14:36:03.741Z,0.50
2023-08-29T14:38:30.856Z,0.40
2023-08-29T14:41:10.261Z,0.50
2023-08-29T14:43:37.430Z,0.60
2023-08-29T14:46:07.485Z,0.55
2023-08-29T14:48:37.779Z,0.40
2023-08-29T14:51:07.254Z,0.60
2023-08-29T14:53:34.412Z,1.05
2023-08-29T14:56:01.241Z,0.68
2023-08-29T14:58:27.833Z,0.50
2023-08-29T15:00:55.100Z,1.33
2023-08-29T15:03:21.540Z,0.70
2023-08-29T15:05:54.966Z,0.73
2023-08-29T15:08:21.393Z,0.60
2023-08-29T15:10:47.896Z,1.30
2023-08-29T15:13:14.199Z,0.82
2023-08-29T15:15:40.611Z,0.98
2023-08-29T15:18:07.444Z,0.63
2023-08-29T15:20:34.136Z,0.90
2023-08-29T15:23:00.459Z,0.60
2023-08-29T15:25:26.781Z,0.52
2023-08-29T15:27:53.157Z,0.90
2023-08-29T15:30:19.552Z,0.93
2023-08-29T15:32:46.026Z,1.52
2023-08-29T15:35:12.633Z,0.70
2023-08-29T15:37:38.956Z,1.15
2023-08-29T15:40:06.400Z,0.60
2023-08-29T15:42:32.792Z,1.10
2023-08-29T15:44:59.076Z,0.95
2023-08-29T15:47:25.453Z,0.50
2023-08-29T15:49:51.862Z,0.70
2023-08-29T15:52:18.145Z,0.85
2023-08-29T15:54:44.515Z,1.05
2023-08-29T15:57:10.799Z,1.23
2023-08-29T15:59:37.412Z,1.50
2023-08-29T16:02:03.869Z,0.73
2023-08-29T16:04:31.371Z,0.90
2023-08-29T16:06:57.658Z,0.75
2023-08-29T16:09:24.039Z,0.57
2023-08-29T16:11:51.351Z,0.90
2023-08-29T16:14:17.712Z,0.60
2023-08-29T16:16:44.012Z,0.90
2023-08-29T16:19:10.408Z,1.02
2023-08-29T16:21:36.814Z,0.70
2023-08-29T16:24:03.347Z,0.45
2023-08-29T16:26:29.666Z,0.77
2023-08-29T16:28:55.947Z,0.45
2023-08-29T16:31:22.404Z,0.77
2023-08-29T16:33:48.923Z,0.50
2023-08-29T16:36:15.507Z,0.50
2023-08-29T16:38:42.001Z,0.35
2023-08-29T16:41:08.391Z,0.40
2023-08-29T16:43:34.828Z,0.50
2023-08-29T16:46:01.254Z,1.30
2023-08-29T16:48:27.596Z,0.40
2023-08-29T16:50:54.236Z,0.22
2023-08-29T16:53:20.972Z,0.43
2023-08-29T16:55:47.285Z,0.40
2023-08-29T16:58:13.920Z,0.47
2023-08-29T17:00:40.644Z,0.50
2023-08-29T17:03:10.435Z,0.63
2023-08-29T17:05:38.297Z,0.43
2023-08-29T17:08:06.331Z,0.35
2023-08-29T17:10:33.242Z,0.30
2023-08-29T17:13:00.815Z,0.45
2023-08-29T17:15:27.409Z,0.40
2023-08-29T17:17:53.771Z,0.47
2023-08-29T17:20:20.583Z,0.40
2023-08-29T17:22:49.273Z,0.47
2023-08-29T17:25:15.710Z,0.57
2023-08-29T17:27:42.037Z,6.38
2023-08-29T17:30:08.976Z,4.40
2023-08-29T17:32:35.698Z,3.78
2023-08-29T17:35:02.137Z,1.73
2023-08-29T17:37:28.435Z,2.58
2023-08-29T17:39:54.951Z,1.65
2023-08-29T17:42:21.687Z,1.95
2023-08-29T17:44:47.987Z,1.02
2023-08-29T17:47:17.557Z,0.95
2023-08-29T17:49:44.212Z,1.30
2023-08-29T17:52:11.222Z,0.90
2023-08-29T17:54:37.563Z,0.68
2023-08-29T17:57:04.146Z,0.65
2023-08-29T17:59:30.773Z,1.00
2023-08-29T18:01:57.077Z,0.47
2023-08-29T18:04:23.386Z,1.08
2023-08-29T18:06:49.791Z,1.05
2023-08-29T18:09:16.179Z,1.15
2023-08-29T18:11:42.734Z,1.05
2023-08-29T18:14:09.152Z,0.80
2023-08-29T18:16:35.474Z,0.82
2023-08-29T18:19:01.964Z,1.15
2023-08-29T18:21:28.467Z,0.88
2023-08-29T18:23:55.759Z,0.80
2023-08-29T18:26:22.082Z,0.60
2023-08-29T18:28:48.515Z,0.73
2023-08-29T18:31:14.908Z,0.90
2023-08-29T18:33:41.335Z,0.95
2023-08-29T18:36:07.648Z,1.30
2023-08-29T18:38:34.041Z,2.75
2023-08-29T18:41:00.343Z,1.20
2023-08-29T18:43:26.738Z,0.93
2023-08-29T18:45:53.081Z,0.80
2023-08-29T18:48:19.439Z,0.93
2023-08-29T18:50:46.042Z,1.00
2023-08-29T18:53:12.397Z,1.00
2023-08-29T18:55:42.362Z,1.30
2023-08-29T18:58:09.236Z,0.93
2023-08-29T19:00:35.917Z,0.93
2023-08-29T19:03:02.368Z,1.65
2023-08-29T19:05:28.742Z,1.00
2023-08-29T19:07:56.146Z,0.93
2023-08-29T19:10:22.684Z,2.90
2023-08-29T19:12:49.037Z,2.13
2023-08-29T19:15:16.449Z,1.80
2023-08-29T19:17:43.257Z,2.15
2023-08-29T19:20:10.480Z,1.38
2023-08-29T19:22:37.054Z,1.30
2023-08-29T19:25:03.632Z,2.20
2023-08-29T19:27:30.159Z,2.45
2023-08-29T19:29:56.691Z,1.65
2023-08-29T19:32:23.161Z,1.40
2023-08-29T19:34:49.660Z,1.83
2023-08-29T19:37:15.983Z,2.28
2023-08-29T19:39:42.361Z,1.92
2023-08-29T19:42:08.756Z,1.00
2023-08-29T19:44:35.252Z,1.02
2023-08-29T19:47:04.005Z,1.20
2023-08-29T19:49:38.119Z,1.65
2023-08-29T19:52:05.976Z,1.95
2023-08-29T19:54:32.474Z,0.90
2023-08-29T19:56:58.940Z,1.05
2023-08-29T19:59:25.225Z,1.02
2023-08-29T20:01:51.931Z,1.00
2023-08-29T20:04:18.442Z,1.80
2023-08-29T20:06:44.748Z,1.13
2023-08-29T20:09:11.048Z,0.82
2023-08-29T20:11:37.442Z,1.33
2023-08-29T20:14:03.936Z,0.90
2023-08-29T20:16:30.273Z,1.38
2023-08-29T20:18:56.614Z,1.10
2023-08-29T20:21:23.087Z,1.30
2023-08-29T20:24:00.956Z,1.08
2023-08-29T20:26:29.519Z,1.45
2023-08-29T20:28:55.827Z,9.82
2023-08-29T20:31:22.266Z,2.38
2023-08-29T20:33:48.739Z,2.88
2023-08-29T20:36:15.226Z,1.73
2023-08-29T20:38:43.186Z,1.80
2023-08-29T20:41:09.493Z,1.42
2023-08-29T20:43:35.867Z,1.35
2023-08-29T20:46:02.328Z,1.20
2023-08-29T20:48:28.744Z,1.80
2023-08-29T20:51:00.092Z,1.02
2023-08-29T20:53:26.505Z,0.80
2023-08-29T20:55:52.799Z,1.35
2023-08-29T20:58:19.195Z,1.33
2023-08-29T21:00:45.500Z,1.10
2023-08-29T21:03:11.919Z,1.42
2023-08-29T21:05:38.474Z,0.90
2023-08-29T21:08:05.426Z,1.38
2023-08-29T21:10:31.942Z,1.48
2023-08-29T21:12:58.250Z,1.30
2023-08-29T21:15:24.642Z,1.50
2023-08-29T21:17:51.054Z,1.17
2023-08-29T21:20:17.448Z,1.33
2023-08-29T21:22:43.803Z,1.75
2023-08-29T21:25:10.208Z,2.08
2023-08-29T21:27:36.593Z,1.30
2023-08-29T21:30:03.080Z,1.88
2023-08-29T21:32:29.553Z,2.00
2023-08-29T21:34:56.064Z,1.50
2023-08-29T21:37:22.464Z,1.38
2023-08-29T21:39:48.955Z,1.25
2023-08-29T21:42:15.252Z,1.38
2023-08-29T21:44:41.795Z,1.40
2023-08-29T21:47:08.167Z,1.40
2023-08-29T21:49:34.523Z,1.83
2023-08-29T21:52:00.923Z,1.55
2023-08-29T21:54:27.290Z,2.50
2023-08-29T21:56:53.668Z,1.83
2023-08-29T21:59:20.040Z,1.60
2023-08-29T22:01:46.416Z,1.33
2023-08-29T22:04:12.844Z,1.60
2023-08-29T22:06:39.193Z,1.60
2023-08-29T22:09:05.557Z,1.67
2023-08-29T22:11:32.056Z,1.55
2023-08-29T22:13:58.558Z,1.85
2023-08-29T22:16:25.298Z,1.50
2023-08-29T22:18:51.643Z,1.73
2023-08-29T22:21:18.022Z,1.40
2023-08-29T22:23:44.371Z,1.30
2023-08-29T22:26:10.683Z,1.27
2023-08-29T22:28:37.209Z,1.30
2023-08-29T22:31:03.730Z,1.48
2023-08-29T22:33:32.430Z,1.15
2023-08-29T22:35:59.216Z,1.55
2023-08-29T22:38:25.564Z,1.35
2023-08-29T22:40:51.950Z,1.50
2023-08-29T22:43:18.333Z,1.35
2023-08-29T22:45:44.650Z,1.85
2023-08-29T22:48:14.179Z,1.52
2023-08-29T22:50:41.430Z,1.40
2023-08-29T22:53:07.811Z,1.60
2023-08-29T22:55:35.647Z,1.50
2023-08-29T22:58:02.062Z,1.30
2023-08-29T23:00:28.373Z,1.63
2023-08-29T23:02:54.739Z,1.55
2023-08-29T23:05:21.272Z,1.65
2023-08-29T23:07:47.650Z,2.47
2023-08-29T23:10:14.042Z,1.83
2023-08-29T23:12:40.371Z,1.20
2023-08-29T23:15:07.235Z,1.98
2023-08-29T23:17:33.640Z,1.70
2023-08-29T23:19:59.995Z,1.85
2023-08-29T23:22:26.716Z,2.05
2023-08-29T23:24:53.177Z,1.85
2023-08-29T23:27:19.565Z,1.60
2023-08-29T23:29:45.888Z,1.40
2023-08-29T23:32:12.269Z,1.20
2023-08-29T23:34:38.847Z,1.85
2023-08-29T23:37:05.260Z,1.30
2023-08-29T23:39:31.582Z,1.35
2023-08-29T23:41:58.008Z,1.67
2023-08-29T23:44:24.358Z,1.60
2023-08-29T23:46:50.731Z,1.67
2023-08-29T23:49:17.108Z,1.25
2023-08-29T23:51:43.481Z,1.65
2023-08-29T23:54:09.945Z,1.48
2023-08-29T23:56:36.270Z,1.38
2023-08-29T23:59:02.675Z,1.48
